Milbridge, ME (04658)

10:39 PM EDT on June 23, 2017 (GMT -0400)
MD1607 | | Change Station
Active Advisory: Dense Fog Advisory

Elev 62 ft 44.50 °N, 67.90 °W | Updated 39 days ago

Overcast
Overcast
45.0 °F
Feels Like 43 °F
N
4.0
Wind Variable Wind from NE
Gusts 13.0 mph

Today
High -- | Low -- °F
--% Chance of Precip.
Yesterday
High -- | Low -- °F
Precip. -- in
Pressure 29.65 in
Visibility 5.0 miles
Clouds Overcast 300 ft
Windchill 43 °F
Dew Point 44 °F
Humidity 97%
Rainfall 0.04 in
Snow Depth Not available.
4:47 AM 8:20 PM
Waning Crescent, 0% visible
METAR KBHB 240156Z AUTO 19007KT 5SM BR OVC003 17/16 A2964 RMK AO2 SLP040 T01670161 $
Pressure 29.65 in
Visibility 5.0 miles
Clouds Overcast 300 ft
Windchill 43 °F
Dew Point 44 °F
Humidity 97%
Rainfall 0.04 in
Snow Depth Not available.
4:47 AM 8:20 PM
Waning Crescent, 0% visible
METAR KBHB 240156Z AUTO 19007KT 5SM BR OVC003 17/16 A2964 RMK AO2 SLP040 T01670161 $

Get Your Daily Forecast Email!

Thanks for signing up!

Be on the lookout for a verification email in your inbox.

You'll start receiving severe weather alerts in your inbox..

×

10-Day Weather Forecast

Almanac

Astronomy

Jun. 23, 2017 Rise Set
Actual Time
Civil Twilight
Nautical Twilight
Astronomical Twilight
Moon
Length of Visible Light
Length of Day
Tomorrow will be .
, % of the Moon is Illuminated

Today's Extremes

State Highs State Lows

Community

WunderPhotos

Category 6

Welcome to Category 6. This is the collective home for Weather Underground's featured writeups by Dr. Jeff Masters (right), Bob Henson (left), Chris Burt, and other regular contributors.

Nearby

Air Quality

  Air Quality AQ Index Pollutant
Not available.

Snow Depth

Station Depth Elevation

Earthquake Activity

City Distance Mag. Time & Date
Minimum magnitude displayed is 2.5.

Coastal Water Temperatures

Place Temperature

Stations

Nearby Weather Stations

Station Location Temp. Windchill Dew Point Humidity Wind Precip. Elev Updated Type
                   

Watches & Warnings

Dense Fog Advisory
Issued: 9:38 PM EDT Jun. 23, 2017 – National Weather Service

... Dense fog advisory remains in effect until 5 am EDT Saturday...

* visibilities... one quarter mile or less, and locally near zero.

* Timing... tonight.

* Impacts... limited visibilities will make travel very difficult.

Precautionary/preparedness actions...

A dense fog advisory means visibilities will frequently be
reduced to less than one quarter mile. If driving... slow down...
use your low beam headlights... and leave plenty of distance ahead
of you.



Cb